Germantown, New York
Current Conditions -  °F | °C
As of 2:53 AM on Tuesday 27 Jan 2015 (Local Time) from KPOU Reporting Station
Light Snow Light Snow  
Wind Chill:   Ceiling: 1100
Heat Index: 18°   Visibility: 0.75mi
Dew Point: 13°   Wind: 14mph
Humidity: 81%   Direction: 20°NNE
Pressure: 29.77"   Gusts: NA
Location:  42.13°N, 73.88°W
Report Text: KPOU 270753Z AUTO 02012KT 3/4SM -SN VV011 M08/M11 A2977 RMK AO2 SLP081 P0000 T10781106 TSNO
Loading
Personal Weather Stations






























Interactive Weather Map New forecast layout! Learn more

10-Day Weather Forecast

Advertisements
Track Severe Weather on mobile